Time;durP1;ratioP1;P1;durP2;ratioP2;P2;SDS_P1;SDS_P2;PMS_P1;PMS_P2;Temp;Humidity;BMP_temperature;BMP_pressure;BME280_temperature;BME280_humidity;BME280_pressure;Samples;Min_cycle;Max_cycle;Signal;HPM_P1;HPM_P2
2022/05/06 00:00:39;;;;;;;1.80;1.75;;;;;;;;;;4901126;29;20052;-81
2022/05/06 00:03:07;;;;;;;2.55;2.00;;;;;;;;;;4901054;29;20514;-80
2022/05/06 00:05:34;;;;;;;2.15;2.00;;;;;;;;;;4906075;29;20040;-81
2022/05/06 00:08:01;;;;;;;2.17;2.00;;;;;;;;;;4917823;29;20095;-81
2022/05/06 00:10:29;;;;;;;3.42;2.10;;;;;;;;;;4892593;29;20410;-83
2022/05/06 00:12:57;;;;;;;3.47;2.10;;;;;;;;;;4898316;29;20466;-81
2022/05/06 00:15:25;;;;;;;2.17;2.08;;;;;;;;;;4901512;29;20052;-81
2022/05/06 00:17:52;;;;;;;3.45;1.90;;;;;;;;;;4897706;29;20611;-83
2022/05/06 00:20:20;;;;;;;2.33;2.13;;;;;;;;;;4908937;29;20071;-82
2022/05/06 00:22:47;;;;;;;2.55;2.35;;;;;;;;;;4906745;29;20463;-82
2022/05/06 00:25:14;;;;;;;2.55;2.40;;;;;;;;;;4909245;29;20036;-81
2022/05/06 00:27:42;;;;;;;3.42;2.50;;;;;;;;;;4905908;29;20040;-81
2022/05/06 00:30:10;;;;;;;2.47;2.38;;;;;;;;;;4900777;29;20048;-78
2022/05/06 00:32:37;;;;;;;2.65;2.45;;;;;;;;;;4899599;29;20050;-81
2022/05/06 00:35:05;;;;;;;2.17;2.00;;;;;;;;;;4902559;29;20045;-81
2022/05/06 00:37:33;;;;;;;2.60;2.40;;;;;;;;;;4897044;29;20049;-81
2022/05/06 00:40:00;;;;;;;2.00;1.83;;;;;;;;;;4906406;29;20055;-81
2022/05/06 00:42:28;;;;;;;2.17;2.08;;;;;;;;;;4897380;29;20132;-79
2022/05/06 00:44:55;;;;;;;2.30;2.20;;;;;;;;;;4902272;29;20101;-81
2022/05/06 00:47:23;;;;;;;2.15;2.05;;;;;;;;;;4909577;29;20058;-81
2022/05/06 00:49:52;;;;;;;2.25;2.15;;;;;;;;;;4913925;29;20048;-81
2022/05/06 00:52:20;;;;;;;2.15;1.98;;;;;;;;;;4909992;29;20053;-81
2022/05/06 00:54:49;;;;;;;2.45;2.25;;;;;;;;;;4913947;29;20068;-81
2022/05/06 00:57:17;;;;;;;3.75;2.53;;;;;;;;;;4913386;29;20066;-79
2022/05/06 01:02:31;;;;;;;2.13;2.03;;;;;;;;;;4922980;29;20433;-81
2022/05/06 01:05:04;;;;;;;3.20;2.20;;;;;;;;;;4917835;29;20271;-81
2022/05/06 01:07:32;;;;;;;2.95;2.60;;;;;;;;;;4913078;29;20493;-81
2022/05/06 01:09:59;;;;;;;6.00;2.60;;;;;;;;;;4927249;29;20040;-80
2022/05/06 01:15:54;;;;;;;2.60;2.40;;;;;;;;;;4886108;29;20045;-81
2022/05/06 01:18:25;;;;;;;2.60;2.40;;;;;;;;;;4889685;29;20064;-81
2022/05/06 01:20:55;;;;;;;2.88;2.67;;;;;;;;;;4900056;29;20475;-81
2022/05/06 01:23:23;;;;;;;2.60;2.40;;;;;;;;;;4903638;29;20055;-82
2022/05/06 01:25:51;;;;;;;2.40;2.30;;;;;;;;;;4907622;29;20033;-81
2022/05/06 01:28:21;;;;;;;2.17;2.05;;;;;;;;;;4893461;29;20052;-81
2022/05/06 01:30:48;;;;;;;2.35;2.05;;;;;;;;;;4895651;29;20071;-81
2022/05/06 01:33:17;;;;;;;2.40;2.20;;;;;;;;;;4895109;29;20053;-81
2022/05/06 01:35:55;;;;;;;2.47;2.30;;;;;;;;;;4912898;29;20070;-81
2022/05/06 01:38:26;;;;;;;2.47;2.38;;;;;;;;;;4909807;29;20071;-81
2022/05/06 01:40:56;;;;;;;3.77;2.50;;;;;;;;;;4891117;29;20189;-81
2022/05/06 01:43:28;;;;;;;4.43;2.22;;;;;;;;;;4902597;29;20049;-81
2022/05/06 01:45:56;;;;;;;3.22;2.30;;;;;;;;;;4901668;29;20045;-81
2022/05/06 01:48:25;;;;;;;4.45;2.50;;;;;;;;;;4887892;29;20131;-81
2022/05/06 01:50:55;;;;;;;2.20;2.10;;;;;;;;;;4891141;29;20047;-81
2022/05/06 01:53:24;;;;;;;3.15;2.70;;;;;;;;;;4897055;29;20524;-81
2022/05/06 01:55:52;;;;;;;2.63;2.50;;;;;;;;;;4897392;29;20452;-81
2022/05/06 01:58:25;;;;;;;4.28;2.45;;;;;;;;;;4908024;29;20132;-80
2022/05/06 02:00:58;;;;;;;2.45;2.25;;;;;;;;;;4918746;29;20064;-81
2022/05/06 02:06:19;;;;;;;2.70;2.58;;;;;;;;;;4897457;29;20049;-81
2022/05/06 02:08:53;;;;;;;3.10;2.90;;;;;;;;;;4890317;29;20067;-82
2022/05/06 02:11:29;;;;;;;2.63;2.42;;;;;;;;;;4908086;29;20494;-79
2022/05/06 02:13:56;;;;;;;2.95;2.50;;;;;;;;;;4898203;29;20116;-82
2022/05/06 02:16:50;;;;;;;2.60;2.40;;;;;;;;;;4888291;29;20064;-81
2022/05/06 02:19:18;;;;;;;4.25;2.70;;;;;;;;;;4901917;29;20051;-80
2022/05/06 02:22:04;;;;;;;2.90;2.63;;;;;;;;;;4913268;29;20047;-81
2022/05/06 02:24:51;;;;;;;4.47;2.80;;;;;;;;;;4892120;29;20559;-81
2022/05/06 02:27:51;;;;;;;2.80;2.60;;;;;;;;;;4880606;29;20466;-81
2022/05/06 02:33:14;;;;;;;3.30;3.10;;;;;;;;;;4896867;29;20483;-81
2022/05/06 02:35:53;;;;;;;3.80;3.10;;;;;;;;;;4903588;29;20499;-81
2022/05/06 02:38:30;;;;;;;4.80;3.50;;;;;;;;;;4891684;29;20068;-81
2022/05/06 02:43:44;;;;;;;3.40;3.20;;;;;;;;;;4916185;29;20055;-78
2022/05/06 02:46:13;;;;;;;3.60;3.30;;;;;;;;;;4928491;29;20048;-78
2022/05/06 02:48:41;;;;;;;3.83;3.35;;;;;;;;;;4913485;29;20042;-79
2022/05/06 02:51:13;;;;;;;5.63;3.75;;;;;;;;;;4909838;29;20116;-79
2022/05/06 02:53:42;;;;;;;3.40;3.20;;;;;;;;;;4898951;29;20072;-80
2022/05/06 02:56:10;;;;;;;3.70;3.40;;;;;;;;;;4894929;29;20131;-78
2022/05/06 02:58:44;;;;;;;3.65;3.35;;;;;;;;;;4928222;29;20050;-80
2022/05/06 03:01:12;;;;;;;3.92;3.72;;;;;;;;;;4905535;29;20574;-79
2022/05/06 03:03:42;;;;;;;3.15;2.95;;;;;;;;;;4892218;29;20044;-79
2022/05/06 03:06:16;;;;;;;3.67;3.40;;;;;;;;;;4905407;29;20055;-79
2022/05/06 03:08:43;;;;;;;3.50;3.30;;;;;;;;;;4916659;29;20044;-79
2022/05/06 03:11:12;;;;;;;3.47;3.13;;;;;;;;;;4914315;29;20044;-79
2022/05/06 03:13:46;;;;;;;3.33;3.13;;;;;;;;;;4913767;29;20044;-80
2022/05/06 03:16:17;;;;;;;4.43;3.23;;;;;;;;;;4921433;29;20071;-79
2022/05/06 03:18:44;;;;;;;5.82;3.40;;;;;;;;;;4918125;29;20054;-79
2022/05/06 03:21:12;;;;;;;4.50;3.78;;;;;;;;;;4922605;29;20063;-79
2022/05/06 03:23:39;;;;;;;4.85;3.75;;;;;;;;;;4920026;29;20044;-80
2022/05/06 03:26:07;;;;;;;4.63;3.47;;;;;;;;;;4923678;29;20049;-86
2022/05/06 03:28:34;;;;;;;3.55;3.33;;;;;;;;;;4922792;29;20085;-79
2022/05/06 03:31:03;;;;;;;3.47;3.17;;;;;;;;;;4927030;29;20040;-80
2022/05/06 03:33:36;;;;;;;3.63;3.35;;;;;;;;;;4918878;29;20569;-79
2022/05/06 03:36:12;;;;;;;4.78;3.42;;;;;;;;;;4916144;29;20142;-79
2022/05/06 03:38:49;;;;;;;3.78;3.58;;;;;;;;;;4915757;29;20302;-79
2022/05/06 03:41:18;;;;;;;3.67;3.42;;;;;;;;;;4915440;29;20498;-79
2022/05/06 03:43:48;;;;;;;4.00;3.65;;;;;;;;;;4913634;29;20075;-79
2022/05/06 03:46:19;;;;;;;4.20;3.90;;;;;;;;;;4915095;29;20071;-79
2022/05/06 03:48:47;;;;;;;4.10;3.80;;;;;;;;;;4901489;29;20071;-79
2022/05/06 03:51:21;;;;;;;4.25;3.95;;;;;;;;;;4900808;29;20131;-79
2022/05/06 03:54:09;;;;;;;4.30;3.90;;;;;;;;;;4910562;29;20067;-79
2022/05/06 03:56:37;;;;;;;4.53;4.22;;;;;;;;;;4919022;29;20048;-78
2022/05/06 03:59:08;;;;;;;4.50;4.10;;;;;;;;;;4925525;29;20118;-80
2022/05/06 04:01:36;;;;;;;4.68;4.22;;;;;;;;;;4913519;29;20480;-80
2022/05/06 04:04:07;;;;;;;4.70;4.28;;;;;;;;;;4898327;29;20082;-79
2022/05/06 04:06:35;;;;;;;4.50;4.10;;;;;;;;;;4897633;29;20114;-79
2022/05/06 04:09:04;;;;;;;5.78;4.82;;;;;;;;;;4921074;29;20058;-80
2022/05/06 04:11:35;;;;;;;4.55;4.15;;;;;;;;;;4901089;29;20056;-79
2022/05/06 04:14:06;;;;;;;5.57;5.07;;;;;;;;;;4899604;29;20546;-79
2022/05/06 04:16:38;;;;;;;16.13;6.38;;;;;;;;;;4926381;29;20039;-80
2022/05/06 04:19:14;;;;;;;8.77;5.53;;;;;;;;;;4899320;29;20059;-79
2022/05/06 04:24:32;;;;;;;7.70;5.63;;;;;;;;;;4922447;29;20048;-80
2022/05/06 04:26:59;;;;;;;8.98;5.85;;;;;;;;;;4915386;29;20418;-80
2022/05/06 04:29:28;;;;;;;7.00;5.30;;;;;;;;;;4916865;29;20044;-79
2022/05/06 04:31:56;;;;;;;8.20;6.20;;;;;;;;;;4898261;29;20212;-80
2022/05/06 04:34:23;;;;;;;7.60;6.50;;;;;;;;;;4923101;29;20103;-80
2022/05/06 04:36:51;;;;;;;8.65;6.38;;;;;;;;;;4917703;29;20066;-80
2022/05/06 04:39:19;;;;;;;7.95;6.70;;;;;;;;;;4896296;29;20048;-80
2022/05/06 04:41:50;;;;;;;8.95;5.65;;;;;;;;;;4909184;29;20056;-80
2022/05/06 04:44:27;;;;;;;6.63;6.03;;;;;;;;;;4928550;29;20032;-80
2022/05/06 04:46:58;;;;;;;7.50;6.63;;;;;;;;;;4917137;29;20052;-80
2022/05/06 04:49:27;;;;;;;7.75;6.07;;;;;;;;;;4898431;29;20055;-80
2022/05/06 04:51:55;;;;;;;8.02;6.30;;;;;;;;;;4930025;29;20737;-80
2022/05/06 04:54:22;;;;;;;7.18;5.50;;;;;;;;;;4913605;29;20082;-79
2022/05/06 04:56:53;;;;;;;7.68;6.13;;;;;;;;;;4924787;29;20047;-79
2022/05/06 04:59:29;;;;;;;8.40;6.50;;;;;;;;;;4928972;29;20459;-79
2022/05/06 05:01:57;;;;;;;7.10;5.65;;;;;;;;;;4915157;29;20052;-79
2022/05/06 05:04:28;;;;;;;7.70;6.60;;;;;;;;;;4911848;29;20043;-80
2022/05/06 05:07:02;;;;;;;15.00;8.13;;;;;;;;;;4897769;29;20048;-80
2022/05/06 05:09:31;;;;;;;8.27;7.10;;;;;;;;;;4898321;29;20063;-79
2022/05/06 05:11:59;;;;;;;8.23;7.03;;;;;;;;;;4893549;29;20124;-82
2022/05/06 05:14:36;;;;;;;7.38;6.38;;;;;;;;;;4913146;29;20095;-79
2022/05/06 05:17:05;;;;;;;5.90;5.40;;;;;;;;;;4912991;29;20526;-78
2022/05/06 05:19:33;;;;;;;5.80;5.30;;;;;;;;;;4906531;29;20123;-78
2022/05/06 05:22:01;;;;;;;6.60;6.00;;;;;;;;;;4907775;29;20156;-79
2022/05/06 05:24:33;;;;;;;7.55;6.60;;;;;;;;;;4909992;29;20395;-79
2022/05/06 05:27:02;;;;;;;7.65;6.57;;;;;;;;;;4897264;29;20044;-80
2022/05/06 05:29:32;;;;;;;7.60;6.35;;;;;;;;;;4916548;29;20040;-80
2022/05/06 05:32:01;;;;;;;8.25;6.70;;;;;;;;;;4910004;29;20414;-79
2022/05/06 05:34:28;;;;;;;7.47;6.78;;;;;;;;;;4914761;29;20414;-79
2022/05/06 05:36:57;;;;;;;8.38;6.97;;;;;;;;;;4927204;29;20063;-79
2022/05/06 05:39:25;;;;;;;7.65;6.88;;;;;;;;;;4900042;29;20040;-80
2022/05/06 05:41:55;;;;;;;8.80;7.40;;;;;;;;;;4913713;29;20138;-79
2022/05/06 05:50:01;;;;;;;9.73;8.82;;;;;;;;;;4908073;29;20048;-80
2022/05/06 05:52:30;;;;;;;10.02;8.38;;;;;;;;;;4912516;29;20063;-84
2022/05/06 05:54:58;;;;;;;8.45;7.65;;;;;;;;;;4914057;29;20048;-81
2022/05/06 05:57:25;;;;;;;9.13;7.50;;;;;;;;;;4914260;29;20047;-80
2022/05/06 05:59:52;;;;;;;10.60;7.30;;;;;;;;;;4908950;29;20090;-80
2022/05/06 06:02:22;;;;;;;8.32;6.88;;;;;;;;;;4908501;29;20044;-80
2022/05/06 06:04:52;;;;;;;8.90;7.35;;;;;;;;;;4917361;29;20114;-79
2022/05/06 06:07:19;;;;;;;8.70;7.93;;;;;;;;;;4927986;29;20115;-78
2022/05/06 06:09:53;;;;;;;7.80;6.70;;;;;;;;;;4920911;29;20071;-80
2022/05/06 06:12:21;;;;;;;7.65;6.82;;;;;;;;;;4915441;29;20498;-79
2022/05/06 06:14:55;;;;;;;7.70;6.57;;;;;;;;;;4899995;29;20161;-79
2022/05/06 06:17:26;;;;;;;7.70;6.95;;;;;;;;;;4914685;29;20131;-80
2022/05/06 06:19:55;;;;;;;7.97;7.28;;;;;;;;;;4901269;29;20059;-79
2022/05/06 06:22:23;;;;;;;7.68;6.97;;;;;;;;;;4898056;29;20051;-79
2022/05/06 06:24:55;;;;;;;7.65;6.93;;;;;;;;;;4908771;29;20064;-80
2022/05/06 06:27:25;;;;;;;8.70;7.30;;;;;;;;;;4898775;29;20059;-79
2022/05/06 06:29:53;;;;;;;8.95;8.15;;;;;;;;;;4913527;29;20060;-81
2022/05/06 06:32:24;;;;;;;10.63;8.52;;;;;;;;;;4924748;29;20043;-79
2022/05/06 06:34:54;;;;;;;9.65;8.57;;;;;;;;;;4925033;29;20107;-80
2022/05/06 06:37:25;;;;;;;10.60;9.50;;;;;;;;;;4880865;29;20048;-80
2022/05/06 06:39:53;;;;;;;10.38;8.90;;;;;;;;;;4925518;29;20044;-80
2022/05/06 06:42:21;;;;;;;10.10;9.23;;;;;;;;;;4910758;29;20045;-80
2022/05/06 06:45:00;;;;;;;9.88;8.88;;;;;;;;;;4909826;29;20123;-81
2022/05/06 06:47:47;;;;;;;11.00;9.82;;;;;;;;;;4913567;29;20036;-80
2022/05/06 06:50:32;;;;;;;10.80;9.60;;;;;;;;;;4911170;29;20136;-80
2022/05/06 06:53:23;;;;;;;16.33;11.35;;;;;;;;;;4917127;29;20059;-81
2022/05/06 06:55:50;;;;;;;13.23;11.65;;;;;;;;;;4918296;29;20056;-81
2022/05/06 06:58:18;;;;;;;13.05;11.43;;;;;;;;;;4913382;29;20059;-81
2022/05/06 07:00:47;;;;;;;15.60;10.30;;;;;;;;;;4916974;29;20517;-80
2022/05/06 07:03:20;;;;;;;11.73;10.45;;;;;;;;;;4921524;29;20048;-80
2022/05/06 07:14:30;;;;;;;21.35;16.63;;;;;;;;;;4913516;29;20044;-81
2022/05/06 07:16:58;;;;;;;20.13;14.50;;;;;;;;;;4928728;29;20044;-80
2022/05/06 07:19:25;;;;;;;14.95;11.25;;;;;;;;;;4928933;29;20455;-80
2022/05/06 07:21:53;;;;;;;9.77;8.93;;;;;;;;;;4914071;29;20047;-80
2022/05/06 07:24:21;;;;;;;14.77;11.88;;;;;;;;;;4911410;29;20044;-80
2022/05/06 07:26:56;;;;;;;21.52;15.77;;;;;;;;;;4913880;29;20040;-80
2022/05/06 07:29:24;;;;;;;26.88;19.50;;;;;;;;;;4928691;29;20061;-79
2022/05/06 07:31:51;;;;;;;26.60;18.35;;;;;;;;;;4911185;29;20219;-79
2022/05/06 07:34:19;;;;;;;26.05;18.50;;;;;;;;;;4907750;29;20079;-79
2022/05/06 07:36:46;;;;;;;26.42;17.88;;;;;;;;;;4913081;29;20048;-83
2022/05/06 07:39:26;;;;;;;31.55;20.35;;;;;;;;;;4913845;29;20096;-80
2022/05/06 07:41:53;;;;;;;27.08;19.73;;;;;;;;;;4915938;29;20064;-80
2022/05/06 07:44:23;;;;;;;20.88;15.85;;;;;;;;;;4893165;29;20080;-79
2022/05/06 07:46:51;;;;;;;21.02;16.40;;;;;;;;;;4914082;29;20155;-80
2022/05/06 07:49:19;;;;;;;21.27;16.83;;;;;;;;;;4926504;29;20063;-80
2022/05/06 07:51:46;;;;;;;24.17;20.55;;;;;;;;;;4911824;29;20087;-79
2022/05/06 07:54:14;;;;;;;21.75;17.70;;;;;;;;;;4914028;29;20147;-80
2022/05/06 07:56:44;;;;;;;24.52;17.30;;;;;;;;;;4909090;29;20048;-80
2022/05/06 07:59:13;;;;;;;22.10;17.90;;;;;;;;;;4913811;29;20317;-80
2022/05/06 08:04:33;;;;;;;24.45;18.63;;;;;;;;;;4914296;29;20785;-80
2022/05/06 08:07:01;;;;;;;26.05;19.50;;;;;;;;;;4917006;29;20135;-81
2022/05/06 08:09:31;;;;;;;24.05;18.88;;;;;;;;;;4917966;29;20048;-79
2022/05/06 08:11:58;;;;;;;22.13;18.20;;;;;;;;;;4914741;29;20068;-79
2022/05/06 08:14:26;;;;;;;29.65;21.13;;;;;;;;;;4905175;29;20059;-80
2022/05/06 08:16:53;;;;;;;24.50;17.17;;;;;;;;;;4916173;29;20076;-80
2022/05/06 08:19:21;;;;;;;23.30;18.85;;;;;;;;;;4916785;29;20052;-79
2022/05/06 08:21:52;;;;;;;24.38;18.73;;;;;;;;;;4915802;29;20058;-80
2022/05/06 08:24:22;;;;;;;27.00;20.98;;;;;;;;;;4913480;29;20495;-80
2022/05/06 08:26:50;;;;;;;24.70;19.48;;;;;;;;;;4919722;29;20047;-79
2022/05/06 08:29:28;;;;;;;22.40;18.02;;;;;;;;;;4927789;29;20051;-78
2022/05/06 08:31:56;;;;;;;21.05;17.73;;;;;;;;;;4921634;29;20036;-81
2022/05/06 08:34:23;;;;;;;22.73;17.48;;;;;;;;;;4917202;29;20119;-79
2022/05/06 08:36:50;;;;;;;20.98;17.52;;;;;;;;;;4928211;29;20127;-78
2022/05/06 08:39:18;;;;;;;17.23;15.52;;;;;;;;;;4923414;29;20036;-80
2022/05/06 08:41:45;;;;;;;18.85;16.95;;;;;;;;;;4929407;23;20047;-84
2022/05/06 08:52:45;;;;;;;17.85;15.70;;;;;;;;;;4916757;29;20433;-84
2022/05/06 08:55:12;;;;;;;19.92;16.77;;;;;;;;;;4916032;29;20045;-84
2022/05/06 08:57:42;;;;;;;17.73;15.23;;;;;;;;;;4906010;29;20131;-84
2022/05/06 09:00:09;;;;;;;18.55;15.57;;;;;;;;;;4918785;29;20051;-84
2022/05/06 09:02:40;;;;;;;15.77;14.18;;;;;;;;;;4895774;29;20090;-83
2022/05/06 09:05:16;;;;;;;11.82;10.73;;;;;;;;;;4899338;29;20126;-84
2022/05/06 09:08:00;;;;;;;18.42;15.27;;;;;;;;;;4901999;29;20078;-85
2022/05/06 09:10:33;;;;;;;14.63;13.23;;;;;;;;;;4921568;29;20059;-85
2022/05/06 09:13:01;;;;;;;15.30;13.82;;;;;;;;;;4902274;29;20095;-85
2022/05/06 09:18:24;;;;;;;13.40;12.27;;;;;;;;;;4918300;29;20411;-86
2022/05/06 09:21:13;;;;;;;13.88;12.65;;;;;;;;;;4918382;29;20055;-85
2022/05/06 09:23:45;;;;;;;15.80;14.13;;;;;;;;;;4919156;29;20044;-85
2022/05/06 09:26:18;;;;;;;14.30;12.70;;;;;;;;;;4936864;29;20052;-85
2022/05/06 09:29:05;;;;;;;14.63;13.13;;;;;;;;;;4933050;29;20075;-84
2022/05/06 09:31:32;;;;;;;13.60;12.32;;;;;;;;;;4921402;29;20046;-85
2022/05/06 09:34:09;;;;;;;14.60;13.07;;;;;;;;;;4935078;29;20043;-85
2022/05/06 09:36:40;;;;;;;13.68;12.40;;;;;;;;;;4900329;29;20043;-85
2022/05/06 09:39:13;;;;;;;19.13;12.98;;;;;;;;;;4901805;29;20098;-85
2022/05/06 09:41:41;;;;;;;13.85;12.45;;;;;;;;;;4901889;29;20059;-86
2022/05/06 09:44:09;;;;;;;15.60;14.00;;;;;;;;;;4901449;29;20531;-86
2022/05/06 09:46:37;;;;;;;14.23;12.70;;;;;;;;;;4934010;29;20622;-86
2022/05/06 09:49:05;;;;;;;14.23;12.80;;;;;;;;;;4917316;29;20647;-86
2022/05/06 09:51:53;;;;;;;12.73;11.40;;;;;;;;;;4922007;29;20044;-86
2022/05/06 09:54:31;;;;;;;13.63;12.43;;;;;;;;;;4902062;29;20502;-87
2022/05/06 09:57:00;;;;;;;14.05;10.98;;;;;;;;;;4916657;29;20106;-86
2022/05/06 09:59:28;;;;;;;13.30;12.00;;;;;;;;;;4916776;29;20513;-86
2022/05/06 10:01:55;;;;;;;13.45;12.07;;;;;;;;;;4930911;29;20705;-86
2022/05/06 10:04:23;;;;;;;12.40;11.20;;;;;;;;;;4910804;29;20098;-86
2022/05/06 10:06:55;;;;;;;11.75;10.75;;;;;;;;;;4895595;29;20095;-86
2022/05/06 10:09:23;;;;;;;12.48;11.02;;;;;;;;;;4916061;29;20399;-85
2022/05/06 10:11:55;;;;;;;13.48;12.18;;;;;;;;;;4933024;29;20524;-86
2022/05/06 10:14:26;;;;;;;13.10;11.90;;;;;;;;;;4898926;29;20092;-86
2022/05/06 10:16:55;;;;;;;15.60;11.15;;;;;;;;;;4911595;29;20044;-86
2022/05/06 10:19:42;;;;;;;13.40;12.10;;;;;;;;;;4915148;29;20043;-87
2022/05/06 10:22:12;;;;;;;11.85;10.85;;;;;;;;;;4897612;29;20063;-86
2022/05/06 10:24:53;;;;;;;12.73;11.55;;;;;;;;;;4925307;28;20031;-86
2022/05/06 10:33:24;;;;;;;11.18;10.07;;;;;;;;;;4931553;29;20788;-87
2022/05/06 10:35:55;;;;;;;11.30;10.20;;;;;;;;;;4910026;29;20039;-87
2022/05/06 10:38:26;;;;;;;9.95;9.05;;;;;;;;;;4899531;29;20048;-86
2022/05/06 10:41:02;;;;;;;;;;;;;;;;;;4921370;29;20135;-86
2022/05/06 10:43:48;;;;;;;9.98;9.07;;;;;;;;;;4901109;29;20010;-87
2022/05/06 10:46:34;;;;;;;10.38;9.02;;;;;;;;;;4906324;29;20079;-87
2022/05/06 10:49:34;;;;;;;9.73;8.82;;;;;;;;;;4883549;29;20058;-86
2022/05/06 10:52:28;;;;;;;10.18;9.23;;;;;;;;;;4915446;29;20035;-86
2022/05/06 10:55:16;;;;;;;10.07;8.50;;;;;;;;;;4897379;29;20079;-87
2022/05/06 10:58:07;;;;;;;9.43;8.52;;;;;;;;;;4900991;29;20050;-87
2022/05/06 11:00:41;;;;;;;;;;;;;;;;;;4916713;29;20050;-87
2022/05/06 11:03:26;;;;;;;9.43;8.63;;;;;;;;;;4917264;29;19927;-85
2022/05/06 11:06:03;;;;;;;9.15;8.38;;;;;;;;;;4905578;29;20042;-86
2022/05/06 11:12:38;;;;;;;9.45;8.50;;;;;;;;;;4930890;29;20610;-87
2022/05/06 11:16:14;;;;;;;8.77;7.97;;;;;;;;;;4924973;29;20049;-87
2022/05/06 11:19:32;;;;;;;8.63;7.93;;;;;;;;;;4918843;29;20028;-87
2022/05/06 11:22:07;;;;;;;9.13;8.23;;;;;;;;;;4882417;29;20711;-86
2022/05/06 11:24:35;;;;;;;9.68;8.40;;;;;;;;;;4894784;29;20058;-86
2022/05/06 11:27:19;;;;;;;8.70;8.02;;;;;;;;;;4922000;29;20048;-88
2022/05/06 11:29:48;;;;;;;8.77;7.97;;;;;;;;;;4894050;29;20082;-87
2022/05/06 11:32:18;;;;;;;8.20;7.60;;;;;;;;;;4894906;29;20040;-84
2022/05/06 11:34:55;;;;;;;8.00;7.40;;;;;;;;;;4914112;29;20044;-86
2022/05/06 11:37:28;;;;;;;10.32;7.78;;;;;;;;;;4935954;29;20084;-85
2022/05/06 11:40:18;;;;;;;7.97;7.28;;;;;;;;;;4926756;29;20079;-85
2022/05/06 11:42:43;;;;;;;9.90;7.05;;;;;;;;;;4929767;29;20047;-87
2022/05/06 11:48:24;;;;;;;7.78;7.07;;;;;;;;;;4880419;29;20132;-86
2022/05/06 11:51:27;;;;;;;7.40;6.90;;;;;;;;;;4904368;29;20040;-85
2022/05/06 11:58:27;;;;;;;8.88;7.03;;;;;;;;;;4888368;29;20567;-87
2022/05/06 12:01:11;;;;;;;8.20;6.95;;;;;;;;;;4890098;29;20060;-87
2022/05/06 12:04:14;;;;;;;9.18;6.65;;;;;;;;;;4883468;29;20146;-87
2022/05/06 12:15:47;;;;;;;8.90;6.72;;;;;;;;;;4822444;23;20671;-84
2022/05/06 12:18:21;;;;;;;7.57;6.97;;;;;;;;;;4931072;29;20044;-83
2022/05/06 12:20:49;;;;;;;7.70;7.10;;;;;;;;;;4924168;29;20048;-81
2022/05/06 12:23:26;;;;;;;7.00;6.47;;;;;;;;;;4932755;29;20135;-82
2022/05/06 12:25:59;;;;;;;7.53;6.82;;;;;;;;;;4941248;29;20040;-82
2022/05/06 12:28:47;;;;;;;7.45;6.80;;;;;;;;;;4933547;29;20054;-83
2022/05/06 12:31:25;;;;;;;7.00;6.30;;;;;;;;;;4964640;29;20112;-83
2022/05/06 12:33:59;;;;;;;7.30;6.60;;;;;;;;;;4943419;29;20130;-83
2022/05/06 12:36:27;;;;;;;8.27;6.22;;;;;;;;;;4909550;29;20063;-82
2022/05/06 12:38:55;;;;;;;7.22;6.63;;;;;;;;;;4927602;29;20060;-83
2022/05/06 12:41:26;;;;;;;7.25;6.65;;;;;;;;;;4923827;29;20043;-80
2022/05/06 12:43:58;;;;;;;7.15;6.55;;;;;;;;;;4933384;29;20067;-81
2022/05/06 12:46:36;;;;;;;6.70;6.10;;;;;;;;;;4913670;29;20048;-80
2022/05/06 12:51:50;;;;;;;6.00;5.57;;;;;;;;;;4925916;29;20067;-83
2022/05/06 12:54:18;;;;;;;5.88;5.47;;;;;;;;;;4912687;29;20044;-81
2022/05/06 12:56:46;;;;;;;5.93;5.53;;;;;;;;;;4917162;29;20055;-82
2022/05/06 12:59:14;;;;;;;6.55;5.80;;;;;;;;;;4923877;29;20765;-83
2022/05/06 13:01:42;;;;;;;6.45;5.85;;;;;;;;;;4926818;29;20043;-84
2022/05/06 13:04:09;;;;;;;6.40;5.80;;;;;;;;;;4900265;29;20043;-82
2022/05/06 13:06:37;;;;;;;5.55;5.13;;;;;;;;;;4928345;28;20622;-83
2022/05/06 13:09:09;;;;;;;6.13;5.53;;;;;;;;;;4916837;29;20059;-82
2022/05/06 13:11:36;;;;;;;6.72;5.88;;;;;;;;;;4916789;29;20052;-81
2022/05/06 13:14:06;;;;;;;6.22;5.22;;;;;;;;;;4929039;29;20071;-83
2022/05/06 13:16:35;;;;;;;7.75;5.32;;;;;;;;;;4901483;29;20048;-82
2022/05/06 13:19:04;;;;;;;6.55;4.80;;;;;;;;;;4934701;29;20774;-82
2022/05/06 13:21:32;;;;;;;6.88;5.05;;;;;;;;;;4927272;29;20043;-83
2022/05/06 13:23:59;;;;;;;5.07;4.78;;;;;;;;;;4940012;29;20051;-81
2022/05/06 13:26:28;;;;;;;7.18;5.57;;;;;;;;;;4911235;29;20084;-81
2022/05/06 13:28:57;;;;;;;5.57;5.07;;;;;;;;;;4923217;29;20036;-81
2022/05/06 13:31:24;;;;;;;5.35;4.63;;;;;;;;;;4920814;29;20040;-82
2022/05/06 13:33:52;;;;;;;5.65;5.13;;;;;;;;;;4922795;29;20043;-82
2022/05/06 13:36:20;;;;;;;5.38;4.90;;;;;;;;;;4906080;29;20552;-82
2022/05/06 13:38:47;;;;;;;4.97;4.57;;;;;;;;;;4906993;29;20056;-81
2022/05/06 13:41:16;;;;;;;5.95;5.45;;;;;;;;;;4922797;29;20696;-81
2022/05/06 13:43:43;;;;;;;4.63;4.05;;;;;;;;;;4923716;29;20052;-82
2022/05/06 13:46:11;;;;;;;4.60;4.28;;;;;;;;;;4909864;29;20071;-82
2022/05/06 13:48:39;;;;;;;5.22;4.68;;;;;;;;;;4930310;29;20036;-82
2022/05/06 13:51:06;;;;;;;4.82;4.53;;;;;;;;;;4927202;29;20044;-82
2022/05/06 13:53:34;;;;;;;4.70;4.28;;;;;;;;;;4910199;29;20051;-82
2022/05/06 13:59:04;;;;;;;4.53;4.13;;;;;;;;;;4922543;29;21409;-81
2022/05/06 14:01:32;;;;;;;4.90;4.45;;;;;;;;;;4904835;29;20081;-81
2022/05/06 14:04:01;;;;;;;10.00;8.55;;;;;;;;;;4918785;29;20055;-82
2022/05/06 14:06:29;;;;;;;4.68;4.32;;;;;;;;;;4923825;29;20055;-82
2022/05/06 14:08:56;;;;;;;4.60;4.30;;;;;;;;;;4919534;29;20099;-81
2022/05/06 14:11:26;;;;;;;4.75;4.45;;;;;;;;;;4912331;29;20048;-82
2022/05/06 14:13:57;;;;;;;4.68;4.38;;;;;;;;;;4909031;29;20128;-82
2022/05/06 14:16:25;;;;;;;5.60;4.40;;;;;;;;;;4921386;29;20086;-82
2022/05/06 14:18:56;;;;;;;4.80;4.40;;;;;;;;;;4920139;29;20129;-82
2022/05/06 14:21:29;;;;;;;4.60;4.20;;;;;;;;;;4923991;29;20051;-82
2022/05/06 14:23:56;;;;;;;4.65;4.35;;;;;;;;;;4923990;29;20063;-81
2022/05/06 14:26:24;;;;;;;4.70;4.30;;;;;;;;;;4912605;29;20051;-82
2022/05/06 14:28:52;;;;;;;4.55;4.25;;;;;;;;;;4924897;29;20452;-82
2022/05/06 14:31:19;;;;;;;4.70;4.30;;;;;;;;;;4922402;29;20564;-81
2022/05/06 14:33:54;;;;;;;4.85;4.47;;;;;;;;;;4917158;29;20547;-82
2022/05/06 14:36:22;;;;;;;4.43;4.13;;;;;;;;;;4908297;29;20044;-81
2022/05/06 14:38:51;;;;;;;5.93;4.63;;;;;;;;;;4909586;29;20255;-82
2022/05/06 14:41:20;;;;;;;5.35;4.95;;;;;;;;;;4938265;28;20054;-80
2022/05/06 14:43:50;;;;;;;5.03;4.72;;;;;;;;;;4938558;23;20052;-80
2022/05/06 14:46:37;;;;;;;5.63;5.05;;;;;;;;;;4892053;29;20732;-80
2022/05/06 14:49:06;;;;;;;5.95;5.07;;;;;;;;;;4901363;29;20142;-80
2022/05/06 14:51:34;;;;;;;5.30;4.95;;;;;;;;;;4905560;29;20047;-80
2022/05/06 14:54:14;;;;;;;5.60;5.10;;;;;;;;;;4922006;29;20048;-78
2022/05/06 14:58:18;;;;;;;4.50;4.10;;;;;;;;;;4899098;29;20056;-79
2022/05/06 15:00:46;;;;;;;6.32;4.65;;;;;;;;;;4886579;29;20083;-80
2022/05/06 15:03:14;;;;;;;4.50;4.20;;;;;;;;;;4916562;29;20047;-79
2022/05/06 15:05:44;;;;;;;5.60;5.10;;;;;;;;;;4884297;29;20521;-78
2022/05/06 15:08:11;;;;;;;4.13;3.88;;;;;;;;;;4915264;29;20083;-80
2022/05/06 15:10:39;;;;;;;5.55;4.88;;;;;;;;;;4903356;29;20067;-79
2022/05/06 15:13:07;;;;;;;5.28;4.95;;;;;;;;;;4901388;29;20075;-81
2022/05/06 15:15:34;;;;;;;5.18;4.78;;;;;;;;;;4901718;29;20094;-81
2022/05/06 15:21:08;;;;;;;4.93;4.50;;;;;;;;;;4843093;29;20061;-79
2022/05/06 15:23:35;;;;;;;5.07;4.68;;;;;;;;;;4864793;29;20044;-80
2022/05/06 15:26:24;;;;;;;5.40;4.68;;;;;;;;;;4875561;29;20452;-80
2022/05/06 15:28:52;;;;;;;4.88;4.47;;;;;;;;;;4891593;29;20054;-79
2022/05/06 15:31:31;;;;;;;4.97;4.55;;;;;;;;;;4925331;29;20047;-80
2022/05/06 15:34:31;;;;;;;6.03;4.57;;;;;;;;;;4905221;29;20182;-81
2022/05/06 15:37:29;;;;;;;4.78;4.28;;;;;;;;;;4904668;29;20151;-79
2022/05/06 15:40:24;;;;;;;4.65;4.25;;;;;;;;;;4908357;29;20039;-79
2022/05/06 15:42:52;;;;;;;7.03;3.83;;;;;;;;;;4909454;29;20504;-78
2022/05/06 15:45:46;;;;;;;4.78;4.03;;;;;;;;;;4904350;29;20048;-77
2022/05/06 15:48:24;;;;;;;3.80;3.60;;;;;;;;;;4905445;29;20423;-80
2022/05/06 15:50:52;;;;;;;4.00;3.80;;;;;;;;;;4920095;29;20063;-78
2022/05/06 15:53:19;;;;;;;4.60;4.20;;;;;;;;;;4919746;29;20048;-77
2022/05/06 15:55:48;;;;;;;4.20;3.90;;;;;;;;;;4895194;29;20062;-80
2022/05/06 15:58:16;;;;;;;3.83;3.63;;;;;;;;;;4889725;29;20151;-79
2022/05/06 16:01:07;;;;;;;3.78;3.58;;;;;;;;;;4914240;29;20050;-80
2022/05/06 16:03:36;;;;;;;3.85;3.65;;;;;;;;;;4923113;29;20575;-79
2022/05/06 16:06:06;;;;;;;3.92;3.70;;;;;;;;;;4893515;29;20059;-80
2022/05/06 16:09:04;;;;;;;4.30;3.90;;;;;;;;;;4909668;29;20501;-80
2022/05/06 16:11:31;;;;;;;5.53;4.50;;;;;;;;;;4904850;29;20218;-79
2022/05/06 16:14:02;;;;;;;5.88;4.03;;;;;;;;;;4894567;29;20070;-80
2022/05/06 16:16:31;;;;;;;4.40;4.10;;;;;;;;;;4896550;29;20079;-80
2022/05/06 16:18:58;;;;;;;6.20;4.10;;;;;;;;;;4925531;29;20047;-80
2022/05/06 16:21:28;;;;;;;4.38;4.05;;;;;;;;;;4893472;29;20103;-79
2022/05/06 16:23:56;;;;;;;4.13;3.85;;;;;;;;;;4908634;29;20126;-81
2022/05/06 16:26:37;;;;;;;4.78;4.45;;;;;;;;;;4924292;29;20516;-79
2022/05/06 16:29:49;;;;;;;4.28;3.97;;;;;;;;;;4904863;29;20043;-79